Time;durP1;ratioP1;P1;durP2;ratioP2;P2;SDS_P1;SDS_P2;PMS_P1;PMS_P2;Temp;Humidity;BMP_temperature;BMP_pressure;BME280_temperature;BME280_humidity;BME280_pressure;Samples;Min_cycle;Max_cycle;Signal;HPM_P1;HPM_P2
2021/05/23 00:00:26;;;;;;;3.92;1.70;;;;;;;;;;5059824;28;20103;-46
2021/05/23 00:02:54;;;;;;;8.05;1.60;;;;;;;;;;5051849;28;20043;-43
2021/05/23 00:05:22;;;;;;;6.28;1.17;;;;;;;;;;5067445;28;20056;-44
2021/05/23 00:07:52;;;;;;;6.60;1.88;;;;;;;;;;5055171;28;20058;-47
2021/05/23 00:10:19;;;;;;;6.50;1.60;;;;;;;;;;5061358;28;20029;-43
2021/05/23 00:12:46;;;;;;;7.05;1.30;;;;;;;;;;5063661;28;20036;-46
2021/05/23 00:15:22;;;;;;;3.45;1.38;;;;;;;;;;5065742;28;20043;-44
2021/05/23 00:17:49;;;;;;;6.40;1.58;;;;;;;;;;5069229;28;20033;-47
2021/05/23 00:20:16;;;;;;;3.45;1.63;;;;;;;;;;5063424;28;20439;-44
2021/05/23 00:22:43;;;;;;;3.58;1.20;;;;;;;;;;5058926;28;20037;-46
2021/05/23 00:25:11;;;;;;;5.03;1.90;;;;;;;;;;5064107;28;20037;-45
2021/05/23 00:27:37;;;;;;;5.70;2.15;;;;;;;;;;5068551;28;20064;-44
2021/05/23 00:30:05;;;;;;;7.97;1.23;;;;;;;;;;5059945;28;20044;-46
2021/05/23 00:32:32;;;;;;;6.20;1.85;;;;;;;;;;5055175;28;20041;-46
2021/05/23 00:34:59;;;;;;;4.50;1.65;;;;;;;;;;5059311;28;20433;-44
2021/05/23 00:37:26;;;;;;;3.92;1.40;;;;;;;;;;5059981;28;20067;-46
2021/05/23 00:39:53;;;;;;;3.08;1.48;;;;;;;;;;5054358;28;20037;-46
2021/05/23 00:42:20;;;;;;;8.02;1.77;;;;;;;;;;5067362;28;20049;-47
2021/05/23 00:44:48;;;;;;;10.10;3.15;;;;;;;;;;5064612;28;20059;-45
2021/05/23 00:47:15;;;;;;;6.88;2.53;;;;;;;;;;5064545;28;20053;-44
2021/05/23 00:49:42;;;;;;;4.40;1.63;;;;;;;;;;5060719;28;20094;-47
2021/05/23 00:52:08;;;;;;;4.55;1.88;;;;;;;;;;5060293;28;20567;-48
2021/05/23 00:54:36;;;;;;;9.93;2.15;;;;;;;;;;5067021;28;20090;-45
2021/05/23 00:57:03;;;;;;;7.90;2.50;;;;;;;;;;5066082;28;20050;-48
2021/05/23 00:59:31;;;;;;;4.30;2.00;;;;;;;;;;5063087;28;20039;-46
2021/05/23 01:01:59;;;;;;;5.97;1.63;;;;;;;;;;5062323;28;20047;-44
2021/05/23 01:04:27;;;;;;;1.98;1.58;;;;;;;;;;5064031;28;20072;-46
2021/05/23 01:06:54;;;;;;;6.38;2.55;;;;;;;;;;5060244;28;20397;-47
2021/05/23 01:09:22;;;;;;;4.18;1.98;;;;;;;;;;5062934;28;20369;-46
2021/05/23 01:11:49;;;;;;;7.45;2.38;;;;;;;;;;5049399;28;20585;-47
2021/05/23 01:14:41;;;;;;;7.10;2.45;;;;;;;;;;5067237;28;20062;-48
2021/05/23 01:17:09;;;;;;;6.05;2.30;;;;;;;;;;5059615;28;20373;-44
2021/05/23 01:19:59;;;;;;;9.93;2.22;;;;;;;;;;5068857;28;20042;-46
2021/05/23 01:22:34;;;;;;;5.78;1.85;;;;;;;;;;5043046;28;20124;-45
2021/05/23 01:25:12;;;;;;;5.35;3.28;;;;;;;;;;5058376;28;20136;-47
2021/05/23 01:27:45;;;;;;;7.53;2.85;;;;;;;;;;5050791;28;20120;-45
2021/05/23 01:30:14;;;;;;;4.20;2.05;;;;;;;;;;5064516;28;20036;-45
2021/05/23 01:32:43;;;;;;;5.22;1.95;;;;;;;;;;5067100;28;20040;-47
2021/05/23 01:35:16;;;;;;;4.78;2.28;;;;;;;;;;5054152;28;20040;-45
2021/05/23 01:37:46;;;;;;;8.93;2.03;;;;;;;;;;5063717;28;20078;-44
2021/05/23 01:40:13;;;;;;;5.97;2.05;;;;;;;;;;5067094;28;20045;-46
2021/05/23 01:42:40;;;;;;;4.13;2.22;;;;;;;;;;5060183;28;20037;-45
2021/05/23 01:45:08;;;;;;;8.63;2.80;;;;;;;;;;5061383;28;20045;-46
2021/05/23 01:47:34;;;;;;;6.63;2.45;;;;;;;;;;5055113;28;20041;-44
2021/05/23 01:50:02;;;;;;;7.18;2.35;;;;;;;;;;5068521;28;20037;-45
2021/05/23 01:52:29;;;;;;;4.10;1.88;;;;;;;;;;5068764;28;20530;-45
2021/05/23 01:54:56;;;;;;;3.65;1.75;;;;;;;;;;5063398;28;20176;-49
2021/05/23 01:57:23;;;;;;;5.63;1.88;;;;;;;;;;5061411;28;20060;-45
2021/05/23 01:59:51;;;;;;;7.20;2.25;;;;;;;;;;5061887;28;20033;-47
2021/05/23 02:02:18;;;;;;;5.78;2.58;;;;;;;;;;5067676;28;20435;-45
2021/05/23 02:04:45;;;;;;;13.13;2.47;;;;;;;;;;5068272;28;20411;-49
2021/05/23 02:07:12;;;;;;;6.72;2.88;;;;;;;;;;5067662;28;20029;-45
2021/05/23 02:09:39;;;;;;;3.38;2.42;;;;;;;;;;5064265;28;20045;-46
2021/05/23 02:12:06;;;;;;;15.40;2.00;;;;;;;;;;5056563;28;20048;-45
2021/05/23 02:14:34;;;;;;;6.15;2.33;;;;;;;;;;5064321;28;20454;-46
2021/05/23 02:17:00;;;;;;;10.60;2.35;;;;;;;;;;5062055;28;20048;-46
2021/05/23 02:19:27;;;;;;;2.30;2.03;;;;;;;;;;5072052;28;20465;-45
2021/05/23 02:21:55;;;;;;;5.47;2.08;;;;;;;;;;5064446;28;20040;-46
2021/05/23 02:24:23;;;;;;;6.78;1.83;;;;;;;;;;5065987;28;20072;-47
2021/05/23 02:26:50;;;;;;;6.00;2.42;;;;;;;;;;5062943;28;20037;-46
2021/05/23 02:29:17;;;;;;;4.63;1.88;;;;;;;;;;5060564;28;20037;-46
2021/05/23 02:31:45;;;;;;;4.75;1.90;;;;;;;;;;5072375;28;20695;-45
2021/05/23 02:34:12;;;;;;;4.88;1.65;;;;;;;;;;5065951;28;20544;-47
2021/05/23 02:36:39;;;;;;;9.63;2.05;;;;;;;;;;5062842;28;20382;-47
2021/05/23 02:39:06;;;;;;;4.55;2.20;;;;;;;;;;5060909;28;20045;-45
2021/05/23 02:41:34;;;;;;;3.83;1.73;;;;;;;;;;5065556;28;20041;-46
2021/05/23 02:44:02;;;;;;;7.93;2.30;;;;;;;;;;5071652;28;20507;-46
2021/05/23 02:46:29;;;;;;;5.28;1.60;;;;;;;;;;5066256;28;20048;-46
2021/05/23 02:48:57;;;;;;;4.13;1.55;;;;;;;;;;5069184;28;20366;-45
2021/05/23 02:51:24;;;;;;;5.35;1.50;;;;;;;;;;5068935;28;20059;-45
2021/05/23 02:53:51;;;;;;;8.00;2.10;;;;;;;;;;5063125;28;20036;-45
2021/05/23 02:56:18;;;;;;;4.75;1.90;;;;;;;;;;5053385;28;20174;-45
2021/05/23 02:58:45;;;;;;;3.85;1.70;;;;;;;;;;5068008;28;20037;-45
2021/05/23 03:01:13;;;;;;;5.18;2.35;;;;;;;;;;5059643;28;20086;-45
2021/05/23 03:03:40;;;;;;;4.68;1.58;;;;;;;;;;5070463;28;20040;-44
2021/05/23 03:06:07;;;;;;;6.72;1.75;;;;;;;;;;5065267;28;20041;-45
2021/05/23 03:08:34;;;;;;;6.68;1.67;;;;;;;;;;5069853;28;20082;-44
2021/05/23 03:11:01;;;;;;;6.97;1.63;;;;;;;;;;5062440;28;20380;-48
2021/05/23 03:13:28;;;;;;;3.78;1.73;;;;;;;;;;5057518;28;20115;-46
2021/05/23 03:15:56;;;;;;;4.40;2.22;;;;;;;;;;5070895;28;20162;-47
2021/05/23 03:18:24;;;;;;;5.10;1.70;;;;;;;;;;5067120;28;20051;-43
2021/05/23 03:20:55;;;;;;;4.40;2.10;;;;;;;;;;5067080;28;20482;-44
2021/05/23 03:23:26;;;;;;;7.88;1.80;;;;;;;;;;5068819;28;20041;-45
2021/05/23 03:25:54;;;;;;;7.55;2.40;;;;;;;;;;5060745;28;20039;-46
2021/05/23 03:28:22;;;;;;;4.15;1.83;;;;;;;;;;5056769;28;20417;-46
2021/05/23 03:30:51;;;;;;;4.25;1.50;;;;;;;;;;5062150;28;20043;-46
2021/05/23 03:33:20;;;;;;;5.70;1.65;;;;;;;;;;5054548;28;20382;-44
2021/05/23 03:35:47;;;;;;;4.88;2.15;;;;;;;;;;5066731;28;20048;-48
2021/05/23 03:38:14;;;;;;;6.65;1.77;;;;;;;;;;5063019;28;20043;-45
2021/05/23 03:40:41;;;;;;;3.67;1.67;;;;;;;;;;5063178;28;20048;-44
2021/05/23 03:43:09;;;;;;;6.90;1.45;;;;;;;;;;5063597;28;20036;-46
2021/05/23 03:45:36;;;;;;;3.08;1.33;;;;;;;;;;5055316;28;20055;-46
2021/05/23 03:48:03;;;;;;;4.82;1.60;;;;;;;;;;5057094;28;20053;-44
2021/05/23 03:50:30;;;;;;;6.82;1.80;;;;;;;;;;5062109;28;20041;-44
2021/05/23 03:52:58;;;;;;;3.80;1.38;;;;;;;;;;5051195;28;20037;-43
2021/05/23 03:55:25;;;;;;;2.85;1.90;;;;;;;;;;5067436;28;20051;-45
2021/05/23 03:57:53;;;;;;;5.97;1.40;;;;;;;;;;5057051;28;20051;-47
2021/05/23 04:00:20;;;;;;;4.85;1.27;;;;;;;;;;5069839;28;20047;-45
2021/05/23 04:02:52;;;;;;;2.67;1.30;;;;;;;;;;5064086;28;20119;-48
2021/05/23 04:05:20;;;;;;;3.67;1.95;;;;;;;;;;5063108;28;20416;-45
2021/05/23 04:07:47;;;;;;;7.57;1.90;;;;;;;;;;5063507;28;20053;-44
2021/05/23 04:10:17;;;;;;;5.35;1.58;;;;;;;;;;5064545;28;20112;-45
2021/05/23 04:12:46;;;;;;;11.05;2.72;;;;;;;;;;5057419;28;20044;-46
2021/05/23 04:15:14;;;;;;;5.72;1.60;;;;;;;;;;5063420;28;20119;-44
2021/05/23 04:17:41;;;;;;;4.15;1.55;;;;;;;;;;5053951;28;20048;-45
2021/05/23 04:20:10;;;;;;;8.82;1.30;;;;;;;;;;5064986;28;20480;-44
2021/05/23 04:22:38;;;;;;;1.83;1.40;;;;;;;;;;5062572;28;20102;-44
2021/05/23 04:25:08;;;;;;;2.70;1.52;;;;;;;;;;5064786;28;20056;-44
2021/05/23 04:27:36;;;;;;;8.27;1.60;;;;;;;;;;5063401;28;20124;-45
2021/05/23 04:30:05;;;;;;;6.13;1.55;;;;;;;;;;5055682;28;20040;-44
2021/05/23 04:32:32;;;;;;;7.03;1.60;;;;;;;;;;5055772;28;20584;-43
2021/05/23 04:34:58;;;;;;;8.02;2.35;;;;;;;;;;5060138;28;20032;-44
2021/05/23 04:37:26;;;;;;;3.17;1.33;;;;;;;;;;5064050;28;20049;-46
2021/05/23 04:39:54;;;;;;;2.42;1.40;;;;;;;;;;5063909;28;20045;-44
2021/05/23 04:42:20;;;;;;;5.80;1.80;;;;;;;;;;5066154;28;20464;-44
2021/05/23 04:45:07;;;;;;;4.20;2.30;;;;;;;;;;5052456;28;20037;-45
2021/05/23 04:47:35;;;;;;;4.47;2.55;;;;;;;;;;5063836;28;20044;-45
2021/05/23 04:50:04;;;;;;;6.47;1.30;;;;;;;;;;5064007;28;20036;-47
2021/05/23 04:52:31;;;;;;;2.22;1.77;;;;;;;;;;5056515;28;20471;-47
2021/05/23 04:54:58;;;;;;;7.18;1.40;;;;;;;;;;5062086;28;20091;-45
2021/05/23 04:57:24;;;;;;;5.22;1.40;;;;;;;;;;5051053;28;20431;-48
2021/05/23 04:59:53;;;;;;;6.57;1.58;;;;;;;;;;5067258;28;20047;-44
2021/05/23 05:02:19;;;;;;;2.80;1.92;;;;;;;;;;5065801;28;20045;-45
2021/05/23 05:04:47;;;;;;;5.85;2.67;;;;;;;;;;5068815;28;20037;-48
2021/05/23 05:07:15;;;;;;;9.20;1.88;;;;;;;;;;5065090;28;20064;-47
2021/05/23 05:09:42;;;;;;;7.43;1.65;;;;;;;;;;5061646;28;20025;-43
2021/05/23 05:12:09;;;;;;;5.00;1.80;;;;;;;;;;5065081;28;20036;-46
2021/05/23 05:14:37;;;;;;;7.45;2.10;;;;;;;;;;5060332;28;20489;-45
2021/05/23 05:17:05;;;;;;;4.55;1.45;;;;;;;;;;5066522;28;20119;-46
2021/05/23 05:19:34;;;;;;;3.90;1.52;;;;;;;;;;5067318;28;20469;-44
2021/05/23 05:22:01;;;;;;;1.67;1.10;;;;;;;;;;5060181;28;20136;-46
2021/05/23 05:24:28;;;;;;;6.93;1.30;;;;;;;;;;5064204;28;20053;-45
2021/05/23 05:26:57;;;;;;;2.13;1.15;;;;;;;;;;5068851;28;20033;-46
2021/05/23 05:29:26;;;;;;;4.53;1.23;;;;;;;;;;5063860;28;20095;-43
2021/05/23 05:31:54;;;;;;;4.68;1.40;;;;;;;;;;5066598;28;20045;-47
2021/05/23 05:34:22;;;;;;;4.82;1.50;;;;;;;;;;5056824;28;20045;-44
2021/05/23 05:36:53;;;;;;;3.33;1.50;;;;;;;;;;5069608;28;20376;-43
2021/05/23 05:39:20;;;;;;;3.10;1.55;;;;;;;;;;5060590;28;20036;-45
2021/05/23 05:41:47;;;;;;;3.00;1.23;;;;;;;;;;5061910;28;20409;-44
2021/05/23 05:44:15;;;;;;;5.07;1.30;;;;;;;;;;5067558;28;20045;-45
2021/05/23 05:46:43;;;;;;;1.98;1.00;;;;;;;;;;5058210;28;20048;-44
2021/05/23 05:49:11;;;;;;;4.72;2.53;;;;;;;;;;5071094;28;20040;-46
2021/05/23 05:51:41;;;;;;;4.47;1.42;;;;;;;;;;5068848;28;20507;-47
2021/05/23 05:54:08;;;;;;;12.85;1.77;;;;;;;;;;5053367;28;20100;-46
2021/05/23 05:56:37;;;;;;;4.65;1.30;;;;;;;;;;5071582;28;20098;-45
2021/05/23 05:59:04;;;;;;;4.47;1.58;;;;;;;;;;5061210;28;20044;-46
2021/05/23 06:01:31;;;;;;;2.65;1.15;;;;;;;;;;5071990;28;20063;-48
2021/05/23 06:03:58;;;;;;;4.28;1.02;;;;;;;;;;5066894;28;20071;-47
2021/05/23 06:06:25;;;;;;;2.45;1.15;;;;;;;;;;5059849;28;20182;-45
2021/05/23 06:08:54;;;;;;;2.72;1.30;;;;;;;;;;5069894;28;20481;-45
2021/05/23 06:11:21;;;;;;;4.53;1.17;;;;;;;;;;5059498;28;20648;-44
2021/05/23 06:13:48;;;;;;;2.95;1.13;;;;;;;;;;5066288;28;20101;-44
2021/05/23 06:16:15;;;;;;;3.25;1.00;;;;;;;;;;5063120;28;20040;-46
2021/05/23 06:18:41;;;;;;;8.70;1.25;;;;;;;;;;5056524;28;20041;-45
2021/05/23 06:21:08;;;;;;;9.10;1.30;;;;;;;;;;5067697;28;20086;-47
2021/05/23 06:23:35;;;;;;;8.25;1.10;;;;;;;;;;5070941;28;20092;-47
2021/05/23 06:26:02;;;;;;;7.13;1.33;;;;;;;;;;5065891;28;20071;-44
2021/05/23 06:28:29;;;;;;;3.85;1.20;;;;;;;;;;5070382;28;20032;-47
2021/05/23 06:30:57;;;;;;;8.43;1.25;;;;;;;;;;5059142;28;20043;-44
2021/05/23 06:33:25;;;;;;;3.63;1.13;;;;;;;;;;5063225;28;20032;-44
2021/05/23 06:35:52;;;;;;;6.15;1.15;;;;;;;;;;5065752;28;20125;-44
2021/05/23 06:38:19;;;;;;;3.42;1.23;;;;;;;;;;5071491;28;20101;-44
2021/05/23 06:40:46;;;;;;;9.60;2.03;;;;;;;;;;5063243;28;20123;-45
2021/05/23 06:43:18;;;;;;;5.57;1.13;;;;;;;;;;5065679;28;20028;-44
2021/05/23 06:45:45;;;;;;;4.20;1.10;;;;;;;;;;5060287;28;21132;-47
2021/05/23 06:48:14;;;;;;;3.53;1.38;;;;;;;;;;5062345;28;20091;-46
2021/05/23 06:50:41;;;;;;;2.75;1.40;;;;;;;;;;5053973;28;20041;-47
2021/05/23 06:53:09;;;;;;;4.20;1.00;;;;;;;;;;5061747;28;20065;-44
2021/05/23 06:55:36;;;;;;;5.32;1.17;;;;;;;;;;5061655;28;20369;-45
2021/05/23 06:58:03;;;;;;;3.85;1.50;;;;;;;;;;5065018;28;20036;-44
2021/05/23 07:00:31;;;;;;;7.63;1.13;;;;;;;;;;5058946;28;20048;-44
2021/05/23 07:02:58;;;;;;;7.93;1.20;;;;;;;;;;5064891;28;20048;-43
2021/05/23 07:05:25;;;;;;;6.22;1.63;;;;;;;;;;5068902;28;20477;-44
2021/05/23 07:07:52;;;;;;;3.17;1.08;;;;;;;;;;5062163;28;20062;-46
2021/05/23 07:10:19;;;;;;;0.95;0.95;;;;;;;;;;5059721;28;20041;-43
2021/05/23 07:12:46;;;;;;;2.60;1.00;;;;;;;;;;5067508;28;20085;-43
2021/05/23 07:15:13;;;;;;;6.32;1.00;;;;;;;;;;5058831;28;20029;-43
2021/05/23 07:17:40;;;;;;;4.82;1.98;;;;;;;;;;5059150;28;20043;-43
2021/05/23 07:20:07;;;;;;;2.35;1.00;;;;;;;;;;5060486;28;20496;-42
2021/05/23 07:22:34;;;;;;;2.95;1.08;;;;;;;;;;5052772;28;20088;-43
2021/05/23 07:25:01;;;;;;;5.32;1.10;;;;;;;;;;5068717;28;20097;-45
2021/05/23 07:27:29;;;;;;;5.07;1.10;;;;;;;;;;5064611;28;20028;-43
2021/05/23 07:29:57;;;;;;;1.90;1.30;;;;;;;;;;5062862;28;20515;-42
2021/05/23 07:32:24;;;;;;;6.10;1.38;;;;;;;;;;5065584;28;20029;-42
2021/05/23 07:34:52;;;;;;;5.90;1.38;;;;;;;;;;5068751;28;20478;-43
2021/05/23 07:37:20;;;;;;;4.80;1.17;;;;;;;;;;5067196;28;20703;-42
2021/05/23 07:39:48;;;;;;;4.43;0.95;;;;;;;;;;5070303;28;20040;-44
2021/05/23 07:42:16;;;;;;;9.20;1.25;;;;;;;;;;5055886;28;20470;-45
2021/05/23 07:44:48;;;;;;;3.60;1.10;;;;;;;;;;5064986;28;20044;-47
2021/05/23 07:47:15;;;;;;;4.85;1.02;;;;;;;;;;5067872;28;20045;-46
2021/05/23 07:49:42;;;;;;;2.95;1.13;;;;;;;;;;5068067;28;20530;-43
2021/05/23 07:52:10;;;;;;;3.85;2.00;;;;;;;;;;5064990;28;20040;-42
2021/05/23 07:54:38;;;;;;;5.38;1.05;;;;;;;;;;5061510;28;20112;-45
2021/05/23 07:57:07;;;;;;;3.28;0.98;;;;;;;;;;5065268;28;20038;-46
2021/05/23 07:59:34;;;;;;;6.70;1.23;;;;;;;;;;5060783;28;20120;-46
2021/05/23 08:02:02;;;;;;;6.95;1.20;;;;;;;;;;5059932;28;20044;-46
2021/05/23 08:04:28;;;;;;;8.07;2.40;;;;;;;;;;5058735;28;20127;-47
2021/05/23 08:06:55;;;;;;;5.43;1.05;;;;;;;;;;5051742;28;20033;-44
2021/05/23 08:09:22;;;;;;;5.43;1.30;;;;;;;;;;5065943;28;20051;-45
2021/05/23 08:11:48;;;;;;;3.80;0.90;;;;;;;;;;5064696;28;20072;-45
2021/05/23 08:14:19;;;;;;;19.05;1.85;;;;;;;;;;5069386;28;20481;-44
2021/05/23 08:16:47;;;;;;;5.10;1.48;;;;;;;;;;5065618;28;20516;-44
2021/05/23 08:19:14;;;;;;;4.38;1.20;;;;;;;;;;5053177;28;20048;-45
2021/05/23 08:21:41;;;;;;;3.83;1.00;;;;;;;;;;5068550;28;20039;-43
2021/05/23 08:24:09;;;;;;;4.13;1.30;;;;;;;;;;5065526;28;20060;-45
2021/05/23 08:26:37;;;;;;;4.60;1.33;;;;;;;;;;5067756;28;20071;-44
2021/05/23 08:29:04;;;;;;;5.13;1.85;;;;;;;;;;5064414;28;20044;-44
2021/05/23 08:31:30;;;;;;;3.53;1.00;;;;;;;;;;5052053;28;20040;-43
2021/05/23 08:33:57;;;;;;;2.67;1.10;;;;;;;;;;5060119;28;20481;-45
2021/05/23 08:36:24;;;;;;;3.17;1.17;;;;;;;;;;5056395;28;20123;-47
2021/05/23 08:38:52;;;;;;;3.10;1.10;;;;;;;;;;5070672;28;20102;-43
2021/05/23 08:41:19;;;;;;;2.28;1.45;;;;;;;;;;5063049;28;20068;-46
2021/05/23 08:43:47;;;;;;;2.60;0.93;;;;;;;;;;5053171;28;20044;-47
2021/05/23 08:46:13;;;;;;;3.53;1.33;;;;;;;;;;5064190;28;20036;-45
2021/05/23 08:48:41;;;;;;;3.42;1.48;;;;;;;;;;5058829;28;20032;-47
2021/05/23 08:51:09;;;;;;;3.50;1.10;;;;;;;;;;5051518;28;20037;-46
2021/05/23 08:53:36;;;;;;;5.40;1.13;;;;;;;;;;5064690;28;20041;-47
2021/05/23 08:56:03;;;;;;;1.65;1.15;;;;;;;;;;5067957;28;20106;-45
2021/05/23 08:58:30;;;;;;;6.90;1.38;;;;;;;;;;5068638;28;20037;-44
2021/05/23 09:00:57;;;;;;;3.30;1.00;;;;;;;;;;5059748;28;20048;-44
2021/05/23 09:03:24;;;;;;;6.22;1.38;;;;;;;;;;5064433;28;20102;-48
2021/05/23 09:05:55;;;;;;;6.97;1.48;;;;;;;;;;5066863;28;20060;-45
2021/05/23 09:08:27;;;;;;;3.65;1.63;;;;;;;;;;5065916;28;20048;-46
2021/05/23 09:10:57;;;;;;;2.53;1.27;;;;;;;;;;5069269;28;20485;-46
2021/05/23 09:13:33;;;;;;;6.38;1.20;;;;;;;;;;5063278;28;20036;-44
2021/05/23 09:16:03;;;;;;;3.28;1.00;;;;;;;;;;5059981;28;20488;-47
2021/05/23 09:18:47;;;;;;;11.95;1.30;;;;;;;;;;5058376;28;20045;-45
2021/05/23 09:21:19;;;;;;;2.47;1.00;;;;;;;;;;5059276;28;20062;-46
2021/05/23 09:23:57;;;;;;;2.00;0.98;;;;;;;;;;5062564;28;20048;-43
2021/05/23 09:26:25;;;;;;;12.60;1.33;;;;;;;;;;5058000;28;20049;-42
2021/05/23 09:28:52;;;;;;;2.70;1.15;;;;;;;;;;5057120;28;20044;-43
2021/05/23 09:31:20;;;;;;;2.78;1.10;;;;;;;;;;5055663;28;20091;-44
2021/05/23 09:33:49;;;;;;;3.35;1.00;;;;;;;;;;5062981;28;20099;-42
2021/05/23 09:36:16;;;;;;;3.20;1.00;;;;;;;;;;5049931;28;20047;-44
2021/05/23 09:38:56;;;;;;;5.63;1.05;;;;;;;;;;5060642;28;20102;-44
2021/05/23 09:41:26;;;;;;;3.78;1.23;;;;;;;;;;5056567;28;20029;-44
2021/05/23 09:44:13;;;;;;;7.20;1.38;;;;;;;;;;5059564;28;20040;-43
2021/05/23 09:47:06;;;;;;;2.55;1.00;;;;;;;;;;5056632;28;22854;-43
2021/05/23 09:49:58;;;;;;;7.70;1.10;;;;;;;;;;5054313;28;20047;-42
2021/05/23 09:52:33;;;;;;;3.50;1.10;;;;;;;;;;5067724;28;20068;-43
2021/05/23 09:55:03;;;;;;;4.40;0.90;;;;;;;;;;5057371;28;20048;-43
2021/05/23 09:57:29;;;;;;;3.05;0.88;;;;;;;;;;5052623;28;20651;-42
2021/05/23 10:00:09;;;;;;;4.40;1.00;;;;;;;;;;5057638;28;20428;-42
2021/05/23 10:03:09;;;;;;;2.15;0.90;;;;;;;;;;5065133;28;20036;-46
2021/05/23 10:05:43;;;;;;;3.92;0.95;;;;;;;;;;5020509;28;20053;-42
2021/05/23 10:08:14;;;;;;;2.70;0.80;;;;;;;;;;5024793;28;20046;-46
2021/05/23 10:10:40;;;;;;;6.28;1.58;;;;;;;;;;5025441;28;20049;-44
2021/05/23 10:13:07;;;;;;;8.55;0.90;;;;;;;;;;5029900;28;20231;-47
2021/05/23 10:15:36;;;;;;;4.82;0.90;;;;;;;;;;5026539;28;20476;-45
2021/05/23 10:18:02;;;;;;;3.28;0.90;;;;;;;;;;5021767;28;20046;-45
2021/05/23 10:20:29;;;;;;;3.03;0.90;;;;;;;;;;5027869;28;20827;-47
2021/05/23 10:22:58;;;;;;;5.40;0.90;;;;;;;;;;5024814;28;20095;-44
2021/05/23 10:25:26;;;;;;;5.60;1.50;;;;;;;;;;5023989;28;20042;-44
2021/05/23 10:27:53;;;;;;;1.58;0.80;;;;;;;;;;5025730;28;20542;-44
2021/05/23 10:30:21;;;;;;;3.58;0.93;;;;;;;;;;5024938;28;20137;-45
2021/05/23 10:32:47;;;;;;;3.22;0.82;;;;;;;;;;5027887;28;20076;-44
2021/05/23 10:35:14;;;;;;;5.30;0.80;;;;;;;;;;5024408;28;20138;-46
2021/05/23 10:37:42;;;;;;;3.25;0.80;;;;;;;;;;5025329;28;20065;-42
2021/05/23 10:40:19;;;;;;;3.05;0.80;;;;;;;;;;5024446;28;20108;-43
2021/05/23 10:42:53;;;;;;;2.95;0.80;;;;;;;;;;5062239;28;20509;-44
2021/05/23 10:45:22;;;;;;;5.63;0.90;;;;;;;;;;5056461;28;20056;-44
2021/05/23 10:47:49;;;;;;;2.72;0.82;;;;;;;;;;5057086;28;20438;-50
2021/05/23 10:50:15;;;;;;;9.95;1.10;;;;;;;;;;5064660;28;20033;-50
2021/05/23 10:52:44;;;;;;;5.88;1.00;;;;;;;;;;5068113;28;20413;-52
2021/05/23 10:55:14;;;;;;;1.50;0.80;;;;;;;;;;5057066;28;20088;-51
2021/05/23 10:57:45;;;;;;;2.38;0.90;;;;;;;;;;5057076;28;20117;-51
2021/05/23 11:00:15;;;;;;;1.50;0.80;;;;;;;;;;5064848;28;20447;-50
2021/05/23 11:02:44;;;;;;;1.95;0.80;;;;;;;;;;5062264;28;20132;-49
2021/05/23 11:05:12;;;;;;;1.83;1.00;;;;;;;;;;5067646;28;20033;-50
2021/05/23 11:07:39;;;;;;;4.72;0.93;;;;;;;;;;5065424;28;20048;-51
2021/05/23 11:10:16;;;;;;;2.65;1.15;;;;;;;;;;5060223;28;20095;-50
2021/05/23 11:12:52;;;;;;;2.47;1.02;;;;;;;;;;5066559;28;20037;-49
2021/05/23 11:15:19;;;;;;;5.72;1.08;;;;;;;;;;5069906;28;20577;-49
2021/05/23 11:17:50;;;;;;;1.58;0.90;;;;;;;;;;5070596;28;20044;-51
2021/05/23 11:20:18;;;;;;;11.68;1.60;;;;;;;;;;5064861;28;20512;-51
2021/05/23 11:22:46;;;;;;;3.05;0.90;;;;;;;;;;5053553;28;20041;-47
2021/05/23 11:25:14;;;;;;;4.95;0.80;;;;;;;;;;5070650;28;20489;-47
2021/05/23 11:27:41;;;;;;;3.05;0.95;;;;;;;;;;5069007;28;20035;-48
2021/05/23 11:30:10;;;;;;;3.03;0.70;;;;;;;;;;5069276;28;20396;-46
2021/05/23 11:32:37;;;;;;;3.20;1.38;;;;;;;;;;5063444;28;20041;-48
2021/05/23 11:35:04;;;;;;;3.92;1.08;;;;;;;;;;5051591;28;20095;-49
2021/05/23 11:37:41;;;;;;;1.98;0.73;;;;;;;;;;5070142;28;20207;-47
2021/05/23 11:40:09;;;;;;;1.30;1.08;;;;;;;;;;5063247;28;20044;-46
2021/05/23 11:42:42;;;;;;;2.38;1.00;;;;;;;;;;5058757;28;20541;-49
2021/05/23 11:45:18;;;;;;;3.38;1.00;;;;;;;;;;5068621;28;20094;-49
2021/05/23 11:47:48;;;;;;;3.60;0.80;;;;;;;;;;5060222;28;20049;-47
2021/05/23 11:50:41;;;;;;;3.78;0.80;;;;;;;;;;5055494;28;20466;-46
2021/05/23 11:53:08;;;;;;;7.38;1.02;;;;;;;;;;5066727;28;20098;-47
2021/05/23 11:55:35;;;;;;;2.47;0.70;;;;;;;;;;5061913;28;20033;-49
2021/05/23 11:58:12;;;;;;;2.45;0.63;;;;;;;;;;5057576;28;20489;-46
2021/05/23 12:00:38;;;;;;;1.95;0.70;;;;;;;;;;5063716;28;20086;-47
2021/05/23 12:03:05;;;;;;;4.13;0.70;;;;;;;;;;5066536;28;20072;-50
2021/05/23 12:05:42;;;;;;;1.92;0.70;;;;;;;;;;5066986;28;20044;-47
2021/05/23 12:08:17;;;;;;;1.67;0.90;;;;;;;;;;5065486;28;20120;-50
2021/05/23 12:10:44;;;;;;;2.88;0.80;;;;;;;;;;5063550;28;20393;-47
2021/05/23 12:13:10;;;;;;;2.08;0.50;;;;;;;;;;5066886;28;20037;-46
2021/05/23 12:15:37;;;;;;;0.65;0.65;;;;;;;;;;5059453;28;20037;-46
2021/05/23 12:18:04;;;;;;;1.05;0.60;;;;;;;;;;5067639;28;20040;-46
2021/05/23 12:20:31;;;;;;;0.85;0.60;;;;;;;;;;5064887;28;20037;-46
2021/05/23 12:22:58;;;;;;;2.38;0.60;;;;;;;;;;5052411;28;20049;-50
2021/05/23 12:25:25;;;;;;;0.80;0.60;;;;;;;;;;5062437;28;20040;-47
2021/05/23 12:27:53;;;;;;;2.10;0.80;;;;;;;;;;5056130;28;20048;-47
2021/05/23 12:30:22;;;;;;;1.85;0.60;;;;;;;;;;5059940;28;20045;-50
2021/05/23 12:33:01;;;;;;;1.45;0.50;;;;;;;;;;5061691;28;20473;-46
2021/05/23 12:35:31;;;;;;;1.83;0.60;;;;;;;;;;5058663;28;20048;-48
2021/05/23 12:38:04;;;;;;;0.85;0.60;;;;;;;;;;5069730;28;20098;-48
2021/05/23 12:40:40;;;;;;;0.85;0.60;;;;;;;;;;5062275;28;20141;-50
2021/05/23 12:43:07;;;;;;;;;;;;;;;;;;5051283;28;20515;-48
2021/05/23 12:45:34;;;;;;;1.25;0.50;;;;;;;;;;5062045;28;19927;-50
2021/05/23 12:48:04;;;;;;;2.05;0.70;;;;;;;;;;5056405;28;20098;-49
2021/05/23 12:50:33;;;;;;;1.58;0.63;;;;;;;;;;5067979;28;20075;-49
2021/05/23 12:53:00;;;;;;;0.60;0.60;;;;;;;;;;5064532;28;20036;-47
2021/05/23 12:55:30;;;;;;;1.40;0.60;;;;;;;;;;5051083;28;20048;-50
2021/05/23 12:57:58;;;;;;;0.50;0.50;;;;;;;;;;5059955;28;20479;-49
2021/05/23 13:00:42;;;;;;;2.88;1.00;;;;;;;;;;5057414;28;20048;-51
2021/05/23 13:03:10;;;;;;;0.80;0.50;;;;;;;;;;5051069;28;20107;-47
2021/05/23 13:05:39;;;;;;;2.47;0.60;;;;;;;;;;5061107;28;20477;-48
2021/05/23 13:08:12;;;;;;;2.47;0.52;;;;;;;;;;5052357;28;20060;-47
2021/05/23 13:10:39;;;;;;;1.63;0.50;;;;;;;;;;5065562;28;20043;-47
2021/05/23 13:13:06;;;;;;;4.40;0.50;;;;;;;;;;5059039;28;20032;-48
2021/05/23 13:15:33;;;;;;;0.95;0.50;;;;;;;;;;5056573;28;20063;-49
2021/05/23 13:17:59;;;;;;;1.98;0.50;;;;;;;;;;5056292;28;20481;-47
2021/05/23 13:20:31;;;;;;;2.13;0.68;;;;;;;;;;5058696;28;20382;-49
2021/05/23 13:22:58;;;;;;;1.65;0.60;;;;;;;;;;5051812;28;20485;-49
2021/05/23 13:25:25;;;;;;;2.08;0.73;;;;;;;;;;5062311;28;20488;-48
2021/05/23 13:27:54;;;;;;;1.67;0.50;;;;;;;;;;5060418;28;20440;-49
2021/05/23 13:30:22;;;;;;;1.23;0.50;;;;;;;;;;5061842;28;20476;-47
2021/05/23 13:32:49;;;;;;;2.33;0.60;;;;;;;;;;5056148;28;20071;-51
2021/05/23 13:35:16;;;;;;;0.80;0.52;;;;;;;;;;5061095;28;20110;-49
2021/05/23 13:37:43;;;;;;;0.70;0.50;;;;;;;;;;5065769;28;20048;-49
2021/05/23 13:40:10;;;;;;;1.05;0.52;;;;;;;;;;5066967;28;20166;-47
2021/05/23 13:42:37;;;;;;;0.85;0.70;;;;;;;;;;5061818;28;20098;-50
2021/05/23 13:45:07;;;;;;;1.00;0.50;;;;;;;;;;5059857;28;20037;-49
2021/05/23 13:47:47;;;;;;;0.75;0.45;;;;;;;;;;5053106;28;20056;-49
2021/05/23 13:50:15;;;;;;;1.60;0.52;;;;;;;;;;5062954;28;20033;-51
2021/05/23 13:52:43;;;;;;;1.60;0.52;;;;;;;;;;5056719;28;20037;-50
2021/05/23 13:55:10;;;;;;;1.60;0.50;;;;;;;;;;5073123;28;20028;-49
2021/05/23 13:57:47;;;;;;;1.30;0.60;;;;;;;;;;5066967;28;20040;-50
2021/05/23 14:00:20;;;;;;;0.50;0.50;;;;;;;;;;5068253;28;20048;-51
2021/05/23 14:02:46;;;;;;;2.05;0.80;;;;;;;;;;5068477;28;20039;-52
2021/05/23 14:05:13;;;;;;;1.55;0.93;;;;;;;;;;5065258;28;20037;-49
2021/05/23 14:07:40;;;;;;;2.65;0.60;;;;;;;;;;5059705;28;20052;-51
2021/05/23 14:10:07;;;;;;;1.95;0.60;;;;;;;;;;5064005;28;20120;-50
2021/05/23 14:12:33;;;;;;;1.02;0.60;;;;;;;;;;5059331;28;20637;-51
2021/05/23 14:15:00;;;;;;;0.75;0.50;;;;;;;;;;5060337;28;20041;-49
2021/05/23 14:17:27;;;;;;;1.95;0.60;;;;;;;;;;5059504;28;20032;-50
2021/05/23 14:19:54;;;;;;;3.00;0.60;;;;;;;;;;5060891;28;20079;-50
2021/05/23 14:22:22;;;;;;;1.38;0.50;;;;;;;;;;5064696;28;20048;-50
2021/05/23 14:24:48;;;;;;;2.15;0.60;;;;;;;;;;5069608;28;20064;-50
2021/05/23 14:27:16;;;;;;;0.50;0.50;;;;;;;;;;5062065;28;20033;-51
2021/05/23 14:29:44;;;;;;;0.88;0.60;;;;;;;;;;5062639;28;20028;-51
2021/05/23 14:32:11;;;;;;;1.55;0.52;;;;;;;;;;5061637;28;20044;-47
2021/05/23 14:34:38;;;;;;;0.90;0.57;;;;;;;;;;5059382;28;20045;-51
2021/05/23 14:37:06;;;;;;;0.50;0.50;;;;;;;;;;5064960;28;20051;-47
2021/05/23 14:39:34;;;;;;;2.88;0.50;;;;;;;;;;5059936;28;20049;-46
2021/05/23 14:42:01;;;;;;;2.15;0.60;;;;;;;;;;5059615;28;20114;-46
2021/05/23 14:44:28;;;;;;;0.70;0.50;;;;;;;;;;5052994;28;20488;-49
2021/05/23 14:46:55;;;;;;;1.55;0.52;;;;;;;;;;5062118;28;20139;-47
2021/05/23 14:49:21;;;;;;;1.27;0.70;;;;;;;;;;5067988;28;20029;-48
2021/05/23 14:51:48;;;;;;;1.20;0.60;;;;;;;;;;5057957;28;20033;-47